EDT,Max TemperatureF,Mean TemperatureF,Min TemperatureF,Max Dew PointF,MeanDew PointF,Min DewpointF,Max Humidity, Mean Humidity, Min Humidity, Max Sea Level PressureIn, Mean Sea Level PressureIn, Min Sea Level PressureIn, Max VisibilityMiles, Mean VisibilityMiles, Min VisibilityMiles, Max Wind SpeedMPH, Mean Wind SpeedMPH, Max Gust SpeedMPH,PrecipitationIn, CloudCover, Events, WindDirDegrees
2013-8-1,86,80,73,73,71,68,88,79,62,30.03,29.97,29.92,10,9,5,10,5,,0.03,5,,201
2013-8-2,87,80,73,75,72,70,89,78,62,30.06,30.01,29.94,10,8,4,13,5,16,0.00,4,,195
2013-8-3,91,82,73,75,72,70,89,75,52,30.06,30.01,29.95,10,10,5,9,5,,0.00,2,,222
2013-8-4,91,81,71,72,69,64,88,69,48,30.04,29.98,29.94,10,10,6,13,5,17,0.00,1,,351
2013-8-5,87,78,69,66,63,59,83,63,40,30.10,30.06,30.02,10,10,4,12,4,,0.00,1,,137
2013-8-6,75,70,66,70,66,61,88,80,65,30.10,30.06,30.01,10,8,1,8,3,91,0.19,4,,58
2013-8-7,87,79,71,70,68,66,88,71,49,30.12,30.08,30.04,10,9,3,12,3,17,0.00,3,,132
2013-8-8,91,80,69,73,68,64,88,69,43,30.10,30.06,30.03,10,9,3,8,2,,0.00,1,,205
2013-8-9,93,83,73,73,72,70,89,70,49,30.13,30.08,30.04,10,9,3,14,7,18,0.00,2,,213
2013-8-10,96,84,73,73,71,70,89,67,44,30.14,30.11,30.06,10,10,10,14,8,18,0.00,1,,218
2013-8-11,96,84,73,73,71,70,89,66,41,30.15,30.10,30.05,10,10,10,14,4,18,0.00,0,,237
2013-8-12,96,86,75,73,71,68,89,67,39,30.09,30.04,29.97,10,10,5,15,5,18,0.07,1,Thunderstorm,240
2013-8-13,96,86,75,73,71,70,83,66,41,29.99,29.91,29.83,10,10,7,17,8,24,0.00,1,Thunderstorm,232
2013-8-14,80,76,71,70,67,61,83,72,58,30.08,29.96,29.86,10,10,10,13,6,16,0.00,2,,13
2013-8-15,78,71,64,61,58,55,77,64,47,30.16,30.11,30.07,10,10,10,15,7,21,0.00,4,,53
2013-8-16,69,66,64,63,60,57,88,82,68,30.16,30.13,30.08,10,9,3,13,6,,1.32,7,,26
2013-8-17,73,68,64,66,63,61,88,83,78,30.18,30.14,30.10,10,8,2,12,7,,0.13,8,,354
2013-8-18,87,78,69,73,69,64,89,77,55,30.24,30.18,30.14,10,8,0,7,2,,0.00,5,,73
2013-8-19,78,74,71,73,69,68,89,85,78,30.19,30.15,30.10,10,9,2,12,5,17,1.39,7,Thunderstorm,33
2013-8-20,89,80,71,73,70,68,89,79,59,30.20,30.16,30.12,10,9,1,12,3,21,0.01,6,Thunderstorm,33
2013-8-21,89,81,73,73,71,70,89,79,59,30.25,30.19,30.14,10,7,0,17,2,25,0.00,5,Thunderstorm,248
2013-8-22,89,81,73,75,71,66,89,80,59,30.18,30.12,30.04,10,8,2,14,3,23,0.67,2,Thunderstorm,227
2013-8-23,93,81,69,75,70,66,88,73,46,30.07,30.03,29.96,10,10,4,17,3,26,0.00,1,Thunderstorm,275
2013-8-24,84,76,68,68,64,61,83,68,48,30.28,30.18,30.06,10,10,8,14,8,21,0.00,3,,31
2013-8-25,82,72,62,63,59,54,88,66,39,30.39,30.32,30.29,10,10,7,15,7,21,0.00,0,,38
2013-8-26,84,72,59,64,58,54,83,67,37,30.33,30.25,30.16,10,10,10,9,3,,0.00,0,,11
2013-8-27,87,74,60,70,63,55,88,69,49,30.17,30.08,30.01,10,10,10,9,3,,0.00,1,,224
2013-8-28,89,79,69,73,70,64,83,74,55,30.04,29.99,29.95,10,8,2,8,5,,0.00,0,,232
2013-8-29,95,83,71,75,71,66,89,73,49,29.99,29.94,29.89,10,8,3,14,6,,0.00,2,,270
2013-8-30,87,78,69,70,67,64,88,72,49,30.08,30.02,29.98,10,9,5,9,5,,0.00,1,,77
2013-8-31,89,79,69,72,69,64,94,74,55,30.02,29.96,29.91,10,8,0,9,3,,0.00,3,,190